createdAt,value
2022-09-01T00:01:39.109Z,13.71
2022-09-01T00:04:06.597Z,13.67
2022-09-01T00:06:34.755Z,13.70
2022-09-01T00:09:05.425Z,13.62
2022-09-01T00:11:32.670Z,13.59
2022-09-01T00:14:01.735Z,13.70
2022-09-01T00:16:30.947Z,13.67
2022-09-01T00:18:57.897Z,13.74
2022-09-01T00:21:31.768Z,13.72
2022-09-01T00:23:59.362Z,13.73
2022-09-01T00:26:26.386Z,13.82
2022-09-01T00:28:53.299Z,13.83
2022-09-01T00:31:21.206Z,13.84
2022-09-01T00:33:48.842Z,13.76
2022-09-01T00:36:16.504Z,13.80
2022-09-01T00:38:43.945Z,13.80
2022-09-01T00:41:11.044Z,13.79
2022-09-01T00:43:50.014Z,13.82
2022-09-01T00:46:21.994Z,13.90
2022-09-01T00:48:54.201Z,13.88
2022-09-01T00:51:21.785Z,13.88
2022-09-01T00:53:49.717Z,13.78
2022-09-01T00:56:16.724Z,13.80
2022-09-01T00:58:43.865Z,13.77
2022-09-01T01:01:11.906Z,13.76
2022-09-01T01:03:42.536Z,13.73
2022-09-01T01:06:09.916Z,13.73
2022-09-01T01:08:39.204Z,13.73
2022-09-01T01:11:10.124Z,13.76
2022-09-01T01:13:49.465Z,13.71
2022-09-01T01:16:16.293Z,13.72
2022-09-01T01:18:43.372Z,13.73
2022-09-01T01:21:38.705Z,13.77
2022-09-01T01:24:25.024Z,13.78
2022-09-01T01:26:52.395Z,13.79
2022-09-01T01:29:20.145Z,13.80
2022-09-01T01:31:54.022Z,13.77
2022-09-01T01:34:21.424Z,13.68
2022-09-01T01:36:49.742Z,13.70
2022-09-01T01:39:23.164Z,13.69
2022-09-01T01:41:50.823Z,13.61
2022-09-01T01:44:20.283Z,13.55
2022-09-01T01:46:50.446Z,13.58
2022-09-01T01:49:20.091Z,13.56
2022-09-01T01:51:48.535Z,13.62
2022-09-01T01:54:15.922Z,13.52
2022-09-01T01:56:42.694Z,13.58
2022-09-01T01:59:15.584Z,13.62
2022-09-01T02:01:44.212Z,13.64
2022-09-01T02:04:12.132Z,13.55
2022-09-01T02:06:46.284Z,13.63
2022-09-01T02:09:15.734Z,13.61
2022-09-01T02:11:42.620Z,13.62
2022-09-01T02:14:09.985Z,13.65
2022-09-01T02:16:37.176Z,13.67
2022-09-01T02:19:07.354Z,13.64
2022-09-01T02:21:34.184Z,13.60
2022-09-01T02:24:04.134Z,13.62
2022-09-01T02:26:38.822Z,13.67
2022-09-01T02:29:10.144Z,13.65
2022-09-01T02:31:40.074Z,13.64
2022-09-01T02:34:14.067Z,13.48
2022-09-01T02:36:49.247Z,13.49
2022-09-01T02:39:17.662Z,13.62
2022-09-01T02:41:44.584Z,13.64
2022-09-01T02:44:14.873Z,13.58
2022-09-01T02:46:44.133Z,13.63
2022-09-01T02:49:17.674Z,13.61
2022-09-01T02:51:46.859Z,13.50
2022-09-01T02:54:19.390Z,13.49
2022-09-01T02:56:49.920Z,13.46
2022-09-01T02:59:17.804Z,13.52
2022-09-01T03:01:47.054Z,13.56
2022-09-01T03:04:14.670Z,13.51
2022-09-01T03:06:41.874Z,13.47
2022-09-01T03:09:15.478Z,13.57
2022-09-01T03:11:46.874Z,13.57
2022-09-01T03:14:14.384Z,13.55
2022-09-01T03:16:41.803Z,13.52
2022-09-01T03:19:09.636Z,13.56
2022-09-01T03:21:41.024Z,13.53
2022-09-01T03:24:15.290Z,13.48
2022-09-01T03:26:43.699Z,13.51
2022-09-01T03:29:10.654Z,13.35
2022-09-01T03:31:38.294Z,13.33
2022-09-01T03:34:06.139Z,13.49
2022-09-01T03:36:34.272Z,13.46
2022-09-01T03:39:01.398Z,13.48
2022-09-01T03:41:30.363Z,13.48
2022-09-01T03:43:59.027Z,13.40
2022-09-01T03:46:27.734Z,13.44
2022-09-01T03:48:58.810Z,13.48
2022-09-01T03:51:26.233Z,13.46
2022-09-01T03:53:59.027Z,13.50
2022-09-01T03:56:27.944Z,13.47
2022-09-01T03:58:59.499Z,13.48
2022-09-01T04:01:33.796Z,13.47
2022-09-01T04:04:01.419Z,13.48
2022-09-01T04:06:30.584Z,13.44
2022-09-01T04:09:02.892Z,13.43
2022-09-01T04:11:31.146Z,13.41
2022-09-01T04:13:58.590Z,13.45
2022-09-01T04:16:49.073Z,13.49
2022-09-01T04:19:20.952Z,13.49
2022-09-01T04:21:50.634Z,13.45
2022-09-01T04:24:19.176Z,13.40
2022-09-01T04:26:49.765Z,13.40
2022-09-01T04:29:27.708Z,13.40
2022-09-01T04:32:17.118Z,13.46
2022-09-01T04:34:43.864Z,13.32
2022-09-01T04:37:18.823Z,13.37
2022-09-01T04:39:56.275Z,13.41
2022-09-01T04:42:26.091Z,13.39
2022-09-01T04:44:54.612Z,13.38
2022-09-01T04:47:35.731Z,13.35
2022-09-01T04:50:07.214Z,13.43
2022-09-01T04:52:33.825Z,13.43
2022-09-01T04:55:00.683Z,13.45
2022-09-01T04:57:27.729Z,13.51
2022-09-01T04:59:56.941Z,13.50
2022-09-01T05:02:27.223Z,13.52
2022-09-01T05:04:54.325Z,13.49
2022-09-01T05:07:21.614Z,13.53
2022-09-01T05:09:48.367Z,13.45
2022-09-01T05:12:16.624Z,13.49
2022-09-01T05:14:46.421Z,13.58
2022-09-01T05:17:13.935Z,13.48
2022-09-01T05:19:47.803Z,13.56
2022-09-01T05:22:16.397Z,13.62
2022-09-01T05:24:43.126Z,13.65
2022-09-01T05:27:12.246Z,13.60
2022-09-01T05:29:41.706Z,13.67
2022-09-01T05:32:10.231Z,13.73
2022-09-01T05:34:39.215Z,13.80
2022-09-01T05:37:08.542Z,13.81
2022-09-01T05:39:38.249Z,13.77
2022-09-01T05:42:08.635Z,13.67
2022-09-01T05:44:36.523Z,13.76
2022-09-01T05:47:05.556Z,13.60
2022-09-01T05:49:33.443Z,13.55
2022-09-01T05:52:00.616Z,13.74
2022-09-01T05:54:28.019Z,13.61
2022-09-01T05:57:02.246Z,13.63
2022-09-01T05:59:41.565Z,13.66
2022-09-01T06:02:09.565Z,13.64
2022-09-01T06:04:41.328Z,13.59
2022-09-01T06:07:11.907Z,13.66
2022-09-01T06:09:42.478Z,13.69
2022-09-01T06:12:18.063Z,13.77
2022-09-01T06:14:46.454Z,13.97
2022-09-01T06:17:16.604Z,14.06
2022-09-01T06:19:44.047Z,14.13
2022-09-01T06:22:11.569Z,14.13
2022-09-01T06:24:43.612Z,14.08
2022-09-01T06:27:11.839Z,14.03
2022-09-01T06:29:41.817Z,14.02
2022-09-01T06:32:13.267Z,14.07
2022-09-01T06:34:44.734Z,14.17
2022-09-01T06:37:13.504Z,14.29
2022-09-01T06:39:40.485Z,14.32
2022-09-01T06:42:09.668Z,14.36
2022-09-01T06:44:40.752Z,14.32
2022-09-01T06:47:09.276Z,14.36
2022-09-01T06:49:36.592Z,14.29
2022-09-01T06:52:04.494Z,14.37
2022-09-01T06:54:34.859Z,14.37
2022-09-01T06:59:54.011Z,14.36
2022-09-01T07:02:26.526Z,14.45
2022-09-01T07:04:54.104Z,14.57
2022-09-01T07:10:24.760Z,14.47
2022-09-01T07:13:08.320Z,14.55
2022-09-01T07:26:52.306Z,14.71
2022-09-01T07:29:20.053Z,14.81
2022-09-01T07:31:50.281Z,14.83
2022-09-01T07:39:51.928Z,14.93
2022-09-01T07:47:56.924Z,15.10
2022-09-01T07:50:38.787Z,15.16
2022-09-01T07:53:08.696Z,15.24
2022-09-01T07:55:35.505Z,15.25
2022-09-01T07:58:02.318Z,15.45
2022-09-01T08:00:31.137Z,15.49
2022-09-01T08:02:58.769Z,15.59
2022-09-01T08:05:27.444Z,15.72
2022-09-01T08:07:54.849Z,15.48
2022-09-01T08:10:21.946Z,15.53
2022-09-01T08:12:56.419Z,15.64
2022-09-01T08:15:41.459Z,15.79
2022-09-01T08:18:13.916Z,15.45
2022-09-01T08:20:47.558Z,15.41
2022-09-01T08:23:18.562Z,15.36
2022-09-01T08:25:46.985Z,15.37
2022-09-01T08:28:14.940Z,15.37
2022-09-01T08:30:52.007Z,15.41
2022-09-01T08:33:19.589Z,15.41
2022-09-01T08:35:48.794Z,15.42
2022-09-01T08:38:15.636Z,15.33
2022-09-01T08:40:43.391Z,15.35
2022-09-01T08:43:35.247Z,15.56
2022-09-01T08:46:17.607Z,15.79
2022-09-01T08:51:49.572Z,15.83
2022-09-01T08:54:35.235Z,15.81
2022-09-01T08:57:06.894Z,15.63
2022-09-01T08:59:33.623Z,15.56
2022-09-01T09:02:49.603Z,15.68
2022-09-01T09:05:37.363Z,15.80
2022-09-01T09:08:33.542Z,15.81
2022-09-01T09:11:38.896Z,15.83
2022-09-01T09:14:27.315Z,15.82
2022-09-01T09:16:55.372Z,15.78
2022-09-01T09:19:23.245Z,15.97
2022-09-01T09:21:52.538Z,16.02
2022-09-01T09:24:47.401Z,16.09
2022-09-01T09:27:29.652Z,15.93
2022-09-01T09:30:02.877Z,15.99
2022-09-01T09:35:45.144Z,15.85
2022-09-01T09:38:29.134Z,16.13
2022-09-01T09:41:17.220Z,16.01
2022-09-01T09:44:01.313Z,15.96
2022-09-01T09:46:39.528Z,15.86
2022-09-01T09:49:35.967Z,16.00
2022-09-01T09:52:10.563Z,15.93
2022-09-01T09:54:58.131Z,15.93
2022-09-01T09:57:24.915Z,16.02
2022-09-01T10:00:00.615Z,16.06
2022-09-01T10:02:39.933Z,16.06
2022-09-01T10:05:44.413Z,16.12
2022-09-01T10:08:45.308Z,16.27
2022-09-01T10:11:31.298Z,16.49
2022-09-01T10:14:02.745Z,16.62
2022-09-01T10:16:32.434Z,16.53
2022-09-01T10:19:01.207Z,16.42
2022-09-01T10:21:35.055Z,16.65
2022-09-01T10:24:20.545Z,16.84
2022-09-01T10:26:52.455Z,16.66
2022-09-01T10:29:25.714Z,16.72
2022-09-01T10:32:14.685Z,17.11
2022-09-01T10:34:42.384Z,17.40
2022-09-01T10:37:10.524Z,17.65
2022-09-01T10:40:10.214Z,17.58
2022-09-01T10:42:37.425Z,18.12
2022-09-01T10:45:04.625Z,18.00
2022-09-01T10:47:37.888Z,17.89
2022-09-01T10:50:23.472Z,18.15
2022-09-01T10:53:05.444Z,18.46
2022-09-01T10:55:38.484Z,17.94
2022-09-01T10:59:30.286Z,17.73
2022-09-01T11:01:18.999Z,17.72
2022-09-01T11:03:56.451Z,17.80
2022-09-01T11:06:42.347Z,17.57
2022-09-01T11:09:25.744Z,17.77
2022-09-01T11:12:11.784Z,17.60
2022-09-01T11:14:53.065Z,17.62
2022-09-01T11:17:54.458Z,17.61
2022-09-01T11:20:36.741Z,17.65
2022-09-01T11:23:08.495Z,17.72
2022-09-01T11:25:44.906Z,17.84
2022-09-01T11:28:24.025Z,17.59
2022-09-01T11:31:11.554Z,17.49
2022-09-01T11:34:04.304Z,17.68
2022-09-01T11:36:44.880Z,17.91
2022-09-01T11:39:14.394Z,18.10
2022-09-01T11:42:00.774Z,18.13
2022-09-01T11:44:50.205Z,18.07
2022-09-01T11:47:27.334Z,17.94
2022-09-01T11:49:55.812Z,18.14
2022-09-01T11:52:25.694Z,17.77
2022-09-01T11:54:52.574Z,18.03
2022-09-01T11:57:21.610Z,18.08
2022-09-01T11:59:48.585Z,17.67
2022-09-01T12:02:36.734Z,17.67
2022-09-01T12:05:24.775Z,18.09
2022-09-01T12:07:51.662Z,18.05
2022-09-01T12:10:27.623Z,17.93
2022-09-01T12:13:02.375Z,17.88
2022-09-01T12:15:30.789Z,17.63
2022-09-01T12:18:44.925Z,17.57
2022-09-01T12:21:20.315Z,17.48
2022-09-01T12:23:47.324Z,17.47
2022-09-01T12:26:16.892Z,17.43
2022-09-01T12:28:53.194Z,17.49
2022-09-01T12:31:23.992Z,17.27
2022-09-01T12:33:52.615Z,17.29
2022-09-01T12:36:36.780Z,17.37
2022-09-01T12:39:24.104Z,17.18
2022-09-01T12:42:05.405Z,17.35
2022-09-01T12:44:38.041Z,17.15
2022-09-01T12:47:07.246Z,17.29
2022-09-01T12:49:51.308Z,17.43
2022-09-01T12:52:25.562Z,17.22
2022-09-01T12:55:07.455Z,17.34
2022-09-01T12:57:39.464Z,17.34
2022-09-01T13:00:11.775Z,17.38
2022-09-01T13:02:45.400Z,17.43
2022-09-01T13:05:34.602Z,17.52
2022-09-01T13:08:07.603Z,17.25
2022-09-01T13:10:38.205Z,17.31
2022-09-01T13:13:06.420Z,17.46
2022-09-01T13:15:34.246Z,17.28
2022-09-01T13:18:01.004Z,17.35
2022-09-01T13:20:27.823Z,17.21
2022-09-01T13:22:54.914Z,17.24
2022-09-01T13:25:23.004Z,17.26
2022-09-01T13:27:50.163Z,17.39
2022-09-01T13:30:22.034Z,17.43
2022-09-01T13:35:36.044Z,17.40
2022-09-01T13:38:02.765Z,17.38
2022-09-01T13:40:29.742Z,17.55
2022-09-01T13:42:56.693Z,17.51
2022-09-01T13:45:28.795Z,17.52
2022-09-01T13:53:30.014Z,17.73
2022-09-01T13:58:24.672Z,17.65
2022-09-01T14:00:51.411Z,17.47
2022-09-01T14:03:22.312Z,17.54
2022-09-01T14:05:49.954Z,17.43
2022-09-01T14:08:19.759Z,17.30
2022-09-01T14:10:49.123Z,17.28
2022-09-01T14:13:15.988Z,17.37
2022-09-01T14:15:43.045Z,17.22
2022-09-01T14:18:09.894Z,17.13
2022-09-01T14:20:39.764Z,17.25
2022-09-01T14:23:07.818Z,17.30
2022-09-01T14:25:35.567Z,17.37
2022-09-01T14:28:03.987Z,17.18
2022-09-01T14:30:32.434Z,17.38
2022-09-01T14:33:00.288Z,17.20
2022-09-01T14:35:27.902Z,17.24
2022-09-01T14:37:55.158Z,17.07
2022-09-01T14:40:23.782Z,17.09
2022-09-01T14:42:53.226Z,16.91
2022-09-01T14:45:23.444Z,16.79
2022-09-01T14:47:53.125Z,16.76
2022-09-01T14:50:23.709Z,16.85
2022-09-01T14:52:53.774Z,17.08
2022-09-01T14:55:24.884Z,16.96
2022-09-01T14:57:52.612Z,16.80
2022-09-01T15:00:19.674Z,16.85
2022-09-01T15:02:47.074Z,16.74
2022-09-01T15:05:14.467Z,16.71
2022-09-01T15:07:41.894Z,16.75
2022-09-01T15:10:10.384Z,16.62
2022-09-01T15:12:42.694Z,16.72
2022-09-01T15:15:10.073Z,16.61
2022-09-01T15:17:37.215Z,16.58
2022-09-01T15:20:23.405Z,16.46
2022-09-01T15:22:50.695Z,16.64
2022-09-01T15:25:18.182Z,16.41
2022-09-01T15:27:45.558Z,16.26
2022-09-01T15:30:17.111Z,16.28
2022-09-01T15:32:49.125Z,16.17
2022-09-01T15:35:16.494Z,16.20
2022-09-01T15:37:43.395Z,16.32
2022-09-01T15:40:10.626Z,16.18
2022-09-01T15:42:38.192Z,16.19
2022-09-01T15:45:09.256Z,16.18
2022-09-01T15:47:36.514Z,16.10
2022-09-01T15:50:05.992Z,16.10
2022-09-01T15:52:34.898Z,16.00
2022-09-01T15:55:03.259Z,15.92
2022-09-01T15:57:30.052Z,15.97
2022-09-01T15:59:57.522Z,15.98
2022-09-01T16:02:26.542Z,16.02
2022-09-01T16:04:53.404Z,15.97
2022-09-01T16:07:20.153Z,15.86
2022-09-01T16:09:46.961Z,15.88
2022-09-01T16:12:13.782Z,15.87
2022-09-01T16:14:41.046Z,15.86
2022-09-01T16:17:18.785Z,15.74
2022-09-01T16:19:57.315Z,15.78
2022-09-01T16:22:34.878Z,15.71
2022-09-01T16:25:08.433Z,15.74
2022-09-01T16:27:39.655Z,15.69
2022-09-01T16:30:12.815Z,15.70
2022-09-01T16:32:44.536Z,15.58
2022-09-01T16:35:11.523Z,15.54
2022-09-01T16:38:01.914Z,15.36
2022-09-01T16:40:42.306Z,15.45
2022-09-01T16:43:16.457Z,15.47
2022-09-01T16:45:43.361Z,15.40
2022-09-01T16:48:22.887Z,15.37
2022-09-01T16:50:56.366Z,15.24
2022-09-01T16:53:30.324Z,15.46
2022-09-01T16:56:18.960Z,15.10
2022-09-01T16:59:23.186Z,15.02
2022-09-01T17:01:52.451Z,15.02
2022-09-01T17:04:33.184Z,15.05
2022-09-01T17:07:10.448Z,14.98
2022-09-01T17:09:42.005Z,14.87
2022-09-01T17:12:20.074Z,14.97
2022-09-01T17:14:55.326Z,14.97
2022-09-01T17:17:28.582Z,14.97
2022-09-01T17:19:55.933Z,14.86
2022-09-01T17:22:22.795Z,14.84
2022-09-01T17:24:54.903Z,14.81
2022-09-01T17:27:35.872Z,14.78
2022-09-01T17:30:04.275Z,14.89
2022-09-01T17:32:37.445Z,14.86
2022-09-01T17:35:37.696Z,14.75
2022-09-01T17:38:14.158Z,14.62
2022-09-01T17:41:19.545Z,14.50
2022-09-01T17:44:18.129Z,14.52
2022-09-01T17:46:58.338Z,14.55
2022-09-01T17:49:38.775Z,14.59
2022-09-01T17:52:16.151Z,14.54
2022-09-01T17:54:58.204Z,14.58
2022-09-01T17:57:27.834Z,14.48
2022-09-01T18:00:16.234Z,14.45
2022-09-01T18:02:51.922Z,14.34
2022-09-01T18:05:24.730Z,14.22
2022-09-01T18:08:03.524Z,14.29
2022-09-01T18:10:33.224Z,14.31
2022-09-01T18:13:03.643Z,14.28
2022-09-01T18:16:00.369Z,14.38
2022-09-01T18:18:33.635Z,14.23
2022-09-01T18:21:05.075Z,14.19
2022-09-01T18:23:37.584Z,14.17
2022-09-01T18:26:22.269Z,14.20
2022-09-01T18:28:54.170Z,14.09
2022-09-01T18:31:48.416Z,14.08
2022-09-01T18:34:26.685Z,14.15
2022-09-01T18:37:10.847Z,14.13
2022-09-01T18:40:11.643Z,14.09
2022-09-01T18:42:46.015Z,14.05
2022-09-01T18:45:35.165Z,14.03
2022-09-01T18:48:39.147Z,14.01
2022-09-01T18:51:24.988Z,14.01
2022-09-01T18:54:06.284Z,13.97
2022-09-01T18:56:54.925Z,14.05
2022-09-01T18:59:44.743Z,14.03
2022-09-01T19:02:44.783Z,13.90
2022-09-01T19:05:31.326Z,13.83
2022-09-01T19:08:28.376Z,13.81
2022-09-01T19:10:58.071Z,13.74
2022-09-01T19:13:28.217Z,13.84
2022-09-01T19:16:22.513Z,13.77
2022-09-01T19:19:02.824Z,13.72
2022-09-01T19:21:32.427Z,13.64
2022-09-01T19:24:04.714Z,13.72
2022-09-01T19:26:48.834Z,13.66
2022-09-01T19:29:24.425Z,13.63
2022-09-01T19:31:57.468Z,13.64
2022-09-01T19:34:27.862Z,13.63
2022-09-01T19:37:00.844Z,13.61
2022-09-01T19:39:34.776Z,13.68
2022-09-01T19:42:02.844Z,13.59
2022-09-01T19:45:07.757Z,13.45
2022-09-01T19:48:12.554Z,13.38
2022-09-01T19:50:52.404Z,13.27
2022-09-01T19:53:37.566Z,13.24
2022-09-01T19:56:09.452Z,13.24
2022-09-01T19:58:55.262Z,13.23
2022-09-01T20:01:46.910Z,13.12
2022-09-01T20:04:28.974Z,13.10
2022-09-01T20:07:00.525Z,13.07
2022-09-01T20:09:40.376Z,13.11
2022-09-01T20:12:19.560Z,13.00
2022-09-01T20:15:00.847Z,12.96
2022-09-01T20:17:33.624Z,12.86
2022-09-01T20:20:08.033Z,12.81
2022-09-01T20:22:53.334Z,12.69
2022-09-01T20:25:25.966Z,12.62
2022-09-01T20:27:58.435Z,12.67
2022-09-01T20:30:27.825Z,12.59
2022-09-01T20:33:05.633Z,12.60
2022-09-01T20:35:53.162Z,12.57
2022-09-01T20:38:44.450Z,12.44
2022-09-01T20:41:20.840Z,12.42
2022-09-01T20:43:51.437Z,12.31
2022-09-01T20:46:22.159Z,12.34
2022-09-01T20:48:49.042Z,12.12
2022-09-01T20:51:28.510Z,12.20
2022-09-01T20:54:15.399Z,12.22
2022-09-01T20:56:54.061Z,12.08
2022-09-01T20:59:42.700Z,12.13
2022-09-01T21:02:25.581Z,12.13
2022-09-01T21:05:02.839Z,11.95
2022-09-01T21:07:36.213Z,11.95
2022-09-01T21:10:23.977Z,11.95
2022-09-01T21:13:09.302Z,11.90
2022-09-01T21:15:46.018Z,11.89
2022-09-01T21:18:51.538Z,11.89
2022-09-01T21:21:27.315Z,11.86
2022-09-01T21:23:53.949Z,11.80
2022-09-01T21:26:20.845Z,11.84
2022-09-01T21:28:51.988Z,11.79
2022-09-01T21:31:20.212Z,11.63
2022-09-01T21:33:47.468Z,11.55
2022-09-01T21:36:14.106Z,11.65
2022-09-01T21:38:40.834Z,11.56
2022-09-01T21:41:12.217Z,11.54
2022-09-01T21:43:41.693Z,11.61
2022-09-01T21:46:09.632Z,11.50
2022-09-01T21:48:36.833Z,11.39
2022-09-01T21:51:06.310Z,11.45
2022-09-01T21:53:33.162Z,11.49
2022-09-01T21:55:59.900Z,11.36
2022-09-01T21:58:26.588Z,11.32
2022-09-01T22:00:53.337Z,11.20
2022-09-01T22:03:20.209Z,11.11
2022-09-01T22:05:46.918Z,11.19
2022-09-01T22:08:17.213Z,11.18
2022-09-01T22:10:47.043Z,11.18
2022-09-01T22:13:13.925Z,11.13
2022-09-01T22:15:45.723Z,11.19
2022-09-01T22:18:12.800Z,11.02
2022-09-01T22:20:40.187Z,10.87
2022-09-01T22:23:07.352Z,10.88
2022-09-01T22:25:35.892Z,10.95
2022-09-01T22:28:05.065Z,11.00
2022-09-01T22:30:32.082Z,11.06
2022-09-01T22:32:59.854Z,10.86
2022-09-01T22:35:26.547Z,10.88
2022-09-01T22:37:53.173Z,10.91
2022-09-01T22:40:20.295Z,10.87
2022-09-01T22:42:47.155Z,10.79
2022-09-01T22:45:14.652Z,10.81
2022-09-01T22:47:41.622Z,10.69
2022-09-01T22:50:09.308Z,10.63
2022-09-01T22:52:36.617Z,10.62
2022-09-01T22:55:05.033Z,10.60
2022-09-01T22:57:32.056Z,10.61
2022-09-01T23:00:00.949Z,10.66
2022-09-01T23:02:28.584Z,10.59
2022-09-01T23:04:55.291Z,10.48
2022-09-01T23:07:22.096Z,10.59
2022-09-01T23:09:48.934Z,10.36
2022-09-01T23:12:15.643Z,10.36
2022-09-01T23:14:42.435Z,10.46
2022-09-01T23:17:09.205Z,10.36
2022-09-01T23:19:35.952Z,10.26
2022-09-01T23:22:03.305Z,10.24
2022-09-01T23:24:30.322Z,10.26
2022-09-01T23:26:57.184Z,10.14
2022-09-01T23:29:25.445Z,10.00
2022-09-01T23:31:52.329Z,10.05
2022-09-01T23:34:19.244Z,10.07
2022-09-01T23:36:46.074Z,10.07
2022-09-01T23:39:13.084Z,10.06
2022-09-01T23:41:39.955Z,9.90
2022-09-01T23:44:09.669Z,9.84
2022-09-01T23:46:40.824Z,10.01
2022-09-01T23:49:08.622Z,9.98
2022-09-01T23:51:36.026Z,10.05
2022-09-01T23:54:02.904Z,9.81
2022-09-01T23:56:30.223Z,9.80
2022-09-01T23:58:57.946Z,9.75
